ニジネヴァルトフスク の空港の天気 - METARとTAF

Nizhnevartovsk ( USNN / NJC ) - ロシア ニジネヴァルトフスク
飛行場実況気象(Metar)
観測時間03/27 19:00 +05 (03/27 14:00 UTC)
風向・風速南南西 6m/s
視程10km以上
天気現象
全天を覆う雲 雲底高度 880m
気温0℃
湿度86%
気圧1006hPa
METARUSNN 271400Z 21006MPS 9999 OVC029 00/M02 Q1006 R21/0///65 NOSIG RMK QFE749
過去の天気等 Google飛行場航空写真 Wunderground天気予報

過去48時間のMETAR

飛行場予報(TAF)
発表時間: 3/27 16:00 +05 (3/27 11:00 UTC)
予報対象時間: 27日17時 +05 ~ 28日17時 +05
風向・風速南 6m/s 瞬間風速 12m/s
視程10km以上
全天を覆う雲 雲底高度 610m
27日17時 +05 ~ 28日2時 +05 に一時的に
風向・風速南南西 8m/s 瞬間風速 14m/s
視程1,000m
天気現象しゅう雪
全天の8割程度の雲 雲底高度 210m
全天の4割程度の積乱雲 雲底高度 460m
TAF USNN 271100Z 2712/2812 19006G12MPS 9999 OVC020
TEMPO 2712/2721 21008G14MPS 1000 SHSN BKN007 SCT015CB